sensor_id;sensor_type;location;lat;lon;timestamp;pressure;altitude;pressure_sealevel;temperature;humidity
13456;BME280;6800;50.940;6.940;2022-12-11T00:03:34;100434.16;;;12.33;40.43
13456;BME280;6800;50.940;6.940;2022-12-11T00:07:35;100431.09;;;12.39;40.89
13456;BME280;6800;50.940;6.940;2022-12-11T00:11:35;100431.75;;;12.42;40.44
13456;BME280;6800;50.940;6.940;2022-12-11T00:15:36;100430.69;;;12.45;40.81
13456;BME280;6800;50.940;6.940;2022-12-11T00:19:37;100432.66;;;12.67;40.82
13456;BME280;6800;50.940;6.940;2022-12-11T00:23:37;100433.41;;;12.43;40.56
13456;BME280;6800;50.940;6.940;2022-12-11T00:27:38;100430.59;;;12.46;40.95
13456;BME280;6800;50.940;6.940;2022-12-11T00:31:40;100431.00;;;12.66;40.89
13456;BME280;6800;50.940;6.940;2022-12-11T00:35:45;100428.47;;;12.51;40.18
13456;BME280;6800;50.940;6.940;2022-12-11T00:39:45;100422.50;;;12.62;40.83
13456;BME280;6800;50.940;6.940;2022-12-11T00:43:46;100428.81;;;12.60;41.37
13456;BME280;6800;50.940;6.940;2022-12-11T00:47:46;100427.00;;;12.60;41.15
13456;BME280;6800;50.940;6.940;2022-12-11T00:51:46;100423.91;;;12.42;41.80
13456;BME280;6800;50.940;6.940;2022-12-11T00:55:47;100426.69;;;12.77;41.15
13456;BME280;6800;50.940;6.940;2022-12-11T00:59:47;100413.00;;;12.61;41.18
13456;BME280;6800;50.940;6.940;2022-12-11T01:03:48;100414.34;;;12.67;41.30
13456;BME280;6800;50.940;6.940;2022-12-11T01:07:48;100418.75;;;12.28;41.94
13456;BME280;6800;50.940;6.940;2022-12-11T01:11:48;100413.72;;;12.63;41.55
13456;BME280;6800;50.940;6.940;2022-12-11T01:15:51;100421.91;;;12.46;42.44
13456;BME280;6800;50.940;6.940;2022-12-11T01:19:54;100427.56;;;12.52;41.57
13456;BME280;6800;50.940;6.940;2022-12-11T01:23:54;100427.31;;;12.68;41.48
13456;BME280;6800;50.940;6.940;2022-12-11T01:27:55;100426.19;;;12.60;41.13
13456;BME280;6800;50.940;6.940;2022-12-11T01:31:55;100421.25;;;12.68;41.64
13456;BME280;6800;50.940;6.940;2022-12-11T01:35:55;100412.28;;;12.46;41.30
13456;BME280;6800;50.940;6.940;2022-12-11T01:39:55;100419.81;;;12.64;41.50
13456;BME280;6800;50.940;6.940;2022-12-11T01:43:56;100409.84;;;12.18;41.44
13456;BME280;6800;50.940;6.940;2022-12-11T01:48:01;100412.88;;;12.63;41.56
13456;BME280;6800;50.940;6.940;2022-12-11T01:52:11;100408.81;;;12.33;41.80
13456;BME280;6800;50.940;6.940;2022-12-11T01:56:12;100410.66;;;12.69;41.31
13456;BME280;6800;50.940;6.940;2022-12-11T02:00:12;100405.03;;;12.37;41.68
13456;BME280;6800;50.940;6.940;2022-12-11T02:04:14;100404.09;;;12.51;41.34
13456;BME280;6800;50.940;6.940;2022-12-11T02:08:15;100399.38;;;12.43;41.36
13456;BME280;6800;50.940;6.940;2022-12-11T02:12:30;100403.00;;;12.66;41.26
13456;BME280;6800;50.940;6.940;2022-12-11T02:16:47;100407.03;;;12.46;41.44
13456;BME280;6800;50.940;6.940;2022-12-11T02:21:08;100398.84;;;12.38;41.03
13456;BME280;6800;50.940;6.940;2022-12-11T02:25:31;100391.09;;;12.49;41.38
13456;BME280;6800;50.940;6.940;2022-12-11T02:33:52;100391.22;;;12.48;41.07
13456;BME280;6800;50.940;6.940;2022-12-11T02:38:00;100392.25;;;12.45;41.19
13456;BME280;6800;50.940;6.940;2022-12-11T02:42:02;100391.13;;;12.37;41.41
13456;BME280;6800;50.940;6.940;2022-12-11T02:46:05;100393.63;;;12.38;41.57
13456;BME280;6800;50.940;6.940;2022-12-11T02:50:10;100393.63;;;12.51;41.56
13456;BME280;6800;50.940;6.940;2022-12-11T02:54:16;100388.63;;;12.35;41.71
13456;BME280;6800;50.940;6.940;2022-12-11T02:58:23;100391.31;;;12.59;41.63
13456;BME280;6800;50.940;6.940;2022-12-11T03:02:25;100383.25;;;12.37;41.86
13456;BME280;6800;50.940;6.940;2022-12-11T03:06:35;100384.00;;;12.26;41.58
13456;BME280;6800;50.940;6.940;2022-12-11T03:10:37;100386.31;;;12.31;41.51
13456;BME280;6800;50.940;6.940;2022-12-11T03:14:38;100383.53;;;12.57;41.09
13456;BME280;6800;50.940;6.940;2022-12-11T03:18:51;100378.84;;;12.50;41.42
13456;BME280;6800;50.940;6.940;2022-12-11T03:23:08;100385.88;;;12.49;41.03
13456;BME280;6800;50.940;6.940;2022-12-11T03:27:18;100391.34;;;12.46;41.24
13456;BME280;6800;50.940;6.940;2022-12-11T03:31:25;100390.50;;;12.33;41.46
13456;BME280;6800;50.940;6.940;2022-12-11T03:35:34;100382.94;;;12.54;41.25
13456;BME280;6800;50.940;6.940;2022-12-11T03:39:39;100386.28;;;12.56;40.47
13456;BME280;6800;50.940;6.940;2022-12-11T03:43:41;100392.16;;;12.60;40.50
13456;BME280;6800;50.940;6.940;2022-12-11T03:47:42;100389.13;;;12.53;40.10
13456;BME280;6800;50.940;6.940;2022-12-11T03:51:45;100384.19;;;12.61;40.55
13456;BME280;6800;50.940;6.940;2022-12-11T03:55:48;100385.88;;;12.49;40.54
13456;BME280;6800;50.940;6.940;2022-12-11T03:59:50;100390.34;;;12.60;40.33
13456;BME280;6800;50.940;6.940;2022-12-11T04:03:50;100387.13;;;12.57;40.38
13456;BME280;6800;50.940;6.940;2022-12-11T04:07:50;100377.91;;;12.64;40.31
13456;BME280;6800;50.940;6.940;2022-12-11T04:11:51;100369.69;;;12.32;41.23
13456;BME280;6800;50.940;6.940;2022-12-11T04:15:51;100370.81;;;12.53;40.23
13456;BME280;6800;50.940;6.940;2022-12-11T04:19:51;100366.28;;;12.55;40.50
13456;BME280;6800;50.940;6.940;2022-12-11T04:24:10;100366.38;;;12.53;40.13
13456;BME280;6800;50.940;6.940;2022-12-11T04:28:14;100361.50;;;12.49;39.83
13456;BME280;6800;50.940;6.940;2022-12-11T04:32:14;100366.78;;;12.60;40.30
13456;BME280;6800;50.940;6.940;2022-12-11T04:36:15;100360.22;;;12.54;40.35
13456;BME280;6800;50.940;6.940;2022-12-11T04:40:17;100369.72;;;12.55;39.55
13456;BME280;6800;50.940;6.940;2022-12-11T04:44:17;100365.78;;;12.50;39.59
13456;BME280;6800;50.940;6.940;2022-12-11T04:48:18;100360.88;;;12.33;39.94
13456;BME280;6800;50.940;6.940;2022-12-11T04:52:18;100350.38;;;12.45;39.28
13456;BME280;6800;50.940;6.940;2022-12-11T04:56:18;100343.66;;;12.54;39.33
13456;BME280;6800;50.940;6.940;2022-12-11T05:00:19;100359.50;;;12.52;39.63
13456;BME280;6800;50.940;6.940;2022-12-11T05:04:19;100357.59;;;12.54;40.21
13456;BME280;6800;50.940;6.940;2022-12-11T05:08:20;100347.97;;;12.55;39.75
13456;BME280;6800;50.940;6.940;2022-12-11T05:12:20;100347.59;;;12.23;40.90
13456;BME280;6800;50.940;6.940;2022-12-11T05:16:20;100349.34;;;12.35;39.75
13456;BME280;6800;50.940;6.940;2022-12-11T05:20:21;100362.63;;;12.32;40.78
13456;BME280;6800;50.940;6.940;2022-12-11T05:24:21;100350.28;;;12.34;40.33
13456;BME280;6800;50.940;6.940;2022-12-11T05:28:22;100341.72;;;12.32;40.52
13456;BME280;6800;50.940;6.940;2022-12-11T05:32:23;100335.72;;;12.43;40.27
13456;BME280;6800;50.940;6.940;2022-12-11T05:36:29;100342.53;;;12.45;40.55
13456;BME280;6800;50.940;6.940;2022-12-11T05:40:30;100344.31;;;12.32;40.79
13456;BME280;6800;50.940;6.940;2022-12-11T05:44:30;100344.03;;;12.24;40.82
13456;BME280;6800;50.940;6.940;2022-12-11T05:48:30;100337.94;;;12.36;41.09
13456;BME280;6800;50.940;6.940;2022-12-11T05:52:31;100331.34;;;12.31;40.21
13456;BME280;6800;50.940;6.940;2022-12-11T05:56:33;100325.38;;;12.41;40.52
13456;BME280;6800;50.940;6.940;2022-12-11T06:00:33;100332.09;;;11.95;41.19
13456;BME280;6800;50.940;6.940;2022-12-11T06:04:33;100332.53;;;12.14;40.92
13456;BME280;6800;50.940;6.940;2022-12-11T06:08:34;100337.53;;;12.42;40.59
13456;BME280;6800;50.940;6.940;2022-12-11T06:12:34;100342.41;;;12.47;40.47
13456;BME280;6800;50.940;6.940;2022-12-11T06:16:35;100337.41;;;12.44;40.67
13456;BME280;6800;50.940;6.940;2022-12-11T06:20:35;100327.66;;;12.46;40.72
13456;BME280;6800;50.940;6.940;2022-12-11T06:24:36;100327.78;;;12.44;40.27
13456;BME280;6800;50.940;6.940;2022-12-11T06:28:36;100330.81;;;12.51;40.20
13456;BME280;6800;50.940;6.940;2022-12-11T06:32:36;100325.47;;;12.52;41.16
13456;BME280;6800;50.940;6.940;2022-12-11T06:36:37;100332.25;;;12.55;41.45
13456;BME280;6800;50.940;6.940;2022-12-11T06:40:37;100330.53;;;12.05;41.51
13456;BME280;6800;50.940;6.940;2022-12-11T06:44:37;100330.03;;;12.13;41.11
13456;BME280;6800;50.940;6.940;2022-12-11T06:48:38;100323.50;;;12.31;41.10
13456;BME280;6800;50.940;6.940;2022-12-11T06:52:39;100328.19;;;12.38;41.05
13456;BME280;6800;50.940;6.940;2022-12-11T06:56:39;100328.09;;;12.40;40.93
13456;BME280;6800;50.940;6.940;2022-12-11T07:00:39;100332.31;;;11.92;41.79
13456;BME280;6800;50.940;6.940;2022-12-11T07:04:40;100332.53;;;12.14;41.61
13456;BME280;6800;50.940;6.940;2022-12-11T07:08:40;100338.59;;;12.27;41.45
13456;BME280;6800;50.940;6.940;2022-12-11T07:12:41;100340.56;;;12.24;41.49
13456;BME280;6800;50.940;6.940;2022-12-11T07:16:42;100345.06;;;12.22;41.74
13456;BME280;6800;50.940;6.940;2022-12-11T07:20:42;100345.81;;;12.11;42.41
13456;BME280;6800;50.940;6.940;2022-12-11T07:24:42;100344.25;;;12.21;41.70
13456;BME280;6800;50.940;6.940;2022-12-11T07:28:43;100346.44;;;12.27;42.62
13456;BME280;6800;50.940;6.940;2022-12-11T07:32:43;100350.25;;;12.47;41.83
13456;BME280;6800;50.940;6.940;2022-12-11T07:36:44;100344.84;;;12.37;41.18
13456;BME280;6800;50.940;6.940;2022-12-11T07:40:44;100351.66;;;12.40;41.56
13456;BME280;6800;50.940;6.940;2022-12-11T07:44:44;100340.66;;;12.35;41.71
13456;BME280;6800;50.940;6.940;2022-12-11T07:48:45;100342.97;;;12.39;41.15
13456;BME280;6800;50.940;6.940;2022-12-11T07:52:46;100341.19;;;12.40;41.61
13456;BME280;6800;50.940;6.940;2022-12-11T07:56:46;100340.47;;;12.25;41.68
13456;BME280;6800;50.940;6.940;2022-12-11T08:00:47;100338.59;;;12.27;41.81
13456;BME280;6800;50.940;6.940;2022-12-11T08:04:48;100333.09;;;12.43;41.54
13456;BME280;6800;50.940;6.940;2022-12-11T08:08:49;100334.25;;;12.51;41.73
13456;BME280;6800;50.940;6.940;2022-12-11T08:12:49;100340.72;;;12.59;41.18
13456;BME280;6800;50.940;6.940;2022-12-11T08:16:49;100337.00;;;12.37;41.44
13456;BME280;6800;50.940;6.940;2022-12-11T08:20:50;100332.47;;;12.52;41.13
13456;BME280;6800;50.940;6.940;2022-12-11T08:24:50;100338.09;;;12.59;40.78
13456;BME280;6800;50.940;6.940;2022-12-11T08:28:51;100334.66;;;12.58;39.69
13456;BME280;6800;50.940;6.940;2022-12-11T08:32:51;100332.22;;;12.68;40.46
13456;BME280;6800;50.940;6.940;2022-12-11T08:36:52;100337.03;;;12.74;40.82
13456;BME280;6800;50.940;6.940;2022-12-11T08:40:52;100334.13;;;12.66;40.54
13456;BME280;6800;50.940;6.940;2022-12-11T08:44:52;100331.28;;;12.69;39.79
13456;BME280;6800;50.940;6.940;2022-12-11T08:48:53;100330.50;;;12.79;40.68
13456;BME280;6800;50.940;6.940;2022-12-11T08:52:54;100336.72;;;12.78;40.15
13456;BME280;6800;50.940;6.940;2022-12-11T08:56:54;100330.50;;;12.79;39.67
13456;BME280;6800;50.940;6.940;2022-12-11T09:00:55;100329.84;;;12.88;40.18
13456;BME280;6800;50.940;6.940;2022-12-11T09:04:55;100333.63;;;12.84;40.24
13456;BME280;6800;50.940;6.940;2022-12-11T09:09:00;100337.16;;;12.72;40.22
13456;BME280;6800;50.940;6.940;2022-12-11T09:13:00;100338.44;;;12.90;39.80
13456;BME280;6800;50.940;6.940;2022-12-11T09:17:02;100346.19;;;12.92;39.75
13456;BME280;6800;50.940;6.940;2022-12-11T09:21:06;100330.78;;;12.87;40.23
13456;BME280;6800;50.940;6.940;2022-12-11T09:25:07;100342.59;;;12.69;40.68
13456;BME280;6800;50.940;6.940;2022-12-11T09:29:09;100336.66;;;12.91;40.18
13456;BME280;6800;50.940;6.940;2022-12-11T09:33:10;100331.28;;;13.05;39.87
13456;BME280;6800;50.940;6.940;2022-12-11T09:37:10;100334.63;;;13.07;40.32
13456;BME280;6800;50.940;6.940;2022-12-11T09:45:20;100330.78;;;13.00;39.97
13456;BME280;6800;50.940;6.940;2022-12-11T09:49:26;100334.81;;;12.80;40.54
13456;BME280;6800;50.940;6.940;2022-12-11T09:53:33;100334.84;;;13.04;40.40
13456;BME280;6800;50.940;6.940;2022-12-11T09:58:02;100343.69;;;12.90;39.81
13456;BME280;6800;50.940;6.940;2022-12-11T10:02:38;100336.91;;;13.11;40.05
13456;BME280;6800;50.940;6.940;2022-12-11T10:06:54;100328.72;;;13.16;40.13
13456;BME280;6800;50.940;6.940;2022-12-11T10:11:36;100319.91;;;13.17;40.21
13456;BME280;6800;50.940;6.940;2022-12-11T10:19:54;100306.97;;;13.26;39.68
13456;BME280;6800;50.940;6.940;2022-12-11T10:23:59;100304.41;;;13.14;39.78
13456;BME280;6800;50.940;6.940;2022-12-11T10:28:09;100300.03;;;13.25;39.28
13456;BME280;6800;50.940;6.940;2022-12-11T10:32:21;100300.53;;;12.83;40.10
13456;BME280;6800;50.940;6.940;2022-12-11T10:36:31;100290.53;;;13.24;39.50
13456;BME280;6800;50.940;6.940;2022-12-11T10:40:33;100298.69;;;12.96;39.46
13456;BME280;6800;50.940;6.940;2022-12-11T10:44:35;100293.69;;;12.93;39.69
13456;BME280;6800;50.940;6.940;2022-12-11T10:48:44;100295.53;;;13.04;40.07
13456;BME280;6800;50.940;6.940;2022-12-11T10:52:44;100286.66;;;12.94;39.93
13456;BME280;6800;50.940;6.940;2022-12-11T10:56:46;100279.91;;;13.26;39.97
13456;BME280;6800;50.940;6.940;2022-12-11T11:01:08;100271.50;;;13.45;39.73
13456;BME280;6800;50.940;6.940;2022-12-11T11:05:33;100271.28;;;13.13;39.83
13456;BME280;6800;50.940;6.940;2022-12-11T11:09:34;100275.75;;;12.76;40.40
13456;BME280;6800;50.940;6.940;2022-12-11T11:13:35;100265.16;;;13.25;39.85
13456;BME280;6800;50.940;6.940;2022-12-11T11:17:47;100274.34;;;12.60;40.26
13456;BME280;6800;50.940;6.940;2022-12-11T11:21:51;100269.81;;;12.85;39.96
13456;BME280;6800;50.940;6.940;2022-12-11T11:25:55;100259.16;;;13.12;39.81
13456;BME280;6800;50.940;6.940;2022-12-11T11:30:03;100255.31;;;13.40;39.97
13456;BME280;6800;50.940;6.940;2022-12-11T11:34:15;100251.63;;;13.53;39.62
13456;BME280;6800;50.940;6.940;2022-12-11T11:38:20;100246.19;;;13.21;39.86
13456;BME280;6800;50.940;6.940;2022-12-11T11:42:27;100237.44;;;13.45;39.34
13456;BME280;6800;50.940;6.940;2022-12-11T11:46:36;100232.56;;;13.40;38.80
13456;BME280;6800;50.940;6.940;2022-12-11T11:50:43;100230.09;;;12.91;38.92
13456;BME280;6800;50.940;6.940;2022-12-11T11:59:20;100234.47;;;13.49;39.29
13456;BME280;6800;50.940;6.940;2022-12-11T12:03:24;100238.94;;;13.01;39.18
13456;BME280;6800;50.940;6.940;2022-12-11T12:07:48;100229.94;;;13.40;38.37
13456;BME280;6800;50.940;6.940;2022-12-11T12:12:07;100236.16;;;13.72;38.63
13456;BME280;6800;50.940;6.940;2022-12-11T12:16:18;100233.03;;;13.45;38.19
13456;BME280;6800;50.940;6.940;2022-12-11T12:20:42;100222.25;;;13.26;37.90
13456;BME280;6800;50.940;6.940;2022-12-11T12:25:05;100221.00;;;13.54;38.43
13456;BME280;6800;50.940;6.940;2022-12-11T12:29:28;100224.59;;;13.07;38.13
13456;BME280;6800;50.940;6.940;2022-12-11T12:33:46;100224.06;;;13.37;38.05
13456;BME280;6800;50.940;6.940;2022-12-11T12:38:06;100217.31;;;13.56;37.78
13456;BME280;6800;50.940;6.940;2022-12-11T12:50:37;100200.13;;;12.95;39.27
13456;BME280;6800;50.940;6.940;2022-12-11T12:54:38;100206.53;;;12.68;39.09
13456;BME280;6800;50.940;6.940;2022-12-11T12:58:44;100196.81;;;13.72;37.39
13456;BME280;6800;50.940;6.940;2022-12-11T13:02:47;100200.16;;;13.74;38.08
13456;BME280;6800;50.940;6.940;2022-12-11T13:06:49;100198.81;;;14.13;37.52
13456;BME280;6800;50.940;6.940;2022-12-11T13:10:59;100207.50;;;13.25;37.89
13456;BME280;6800;50.940;6.940;2022-12-11T13:15:00;100197.81;;;13.25;38.11
13456;BME280;6800;50.940;6.940;2022-12-11T13:19:01;100207.41;;;13.38;37.73
13456;BME280;6800;50.940;6.940;2022-12-11T13:23:39;100205.06;;;13.11;37.81
13456;BME280;6800;50.940;6.940;2022-12-11T13:27:40;100200.47;;;13.37;37.64
13456;BME280;6800;50.940;6.940;2022-12-11T13:31:43;100197.47;;;13.30;37.29
13456;BME280;6800;50.940;6.940;2022-12-11T13:35:44;100196.03;;;13.26;37.74
13456;BME280;6800;50.940;6.940;2022-12-11T13:39:45;100199.69;;;13.69;37.34
13456;BME280;6800;50.940;6.940;2022-12-11T13:43:48;100211.25;;;13.10;37.73
13456;BME280;6800;50.940;6.940;2022-12-11T13:47:49;100212.28;;;13.31;37.16
13456;BME280;6800;50.940;6.940;2022-12-11T13:51:57;100210.63;;;13.52;36.90
13456;BME280;6800;50.940;6.940;2022-12-11T13:56:03;100211.47;;;13.53;37.23
13456;BME280;6800;50.940;6.940;2022-12-11T14:00:17;100213.41;;;13.73;36.63
13456;BME280;6800;50.940;6.940;2022-12-11T14:04:19;100221.81;;;13.43;37.77
13456;BME280;6800;50.940;6.940;2022-12-11T14:08:23;100222.44;;;13.69;37.16
13456;BME280;6800;50.940;6.940;2022-12-11T14:12:27;100213.38;;;13.51;36.99
13456;BME280;6800;50.940;6.940;2022-12-11T14:16:28;100219.16;;;13.32;37.58
13456;BME280;6800;50.940;6.940;2022-12-11T14:20:32;100217.63;;;13.29;37.37
13456;BME280;6800;50.940;6.940;2022-12-11T14:24:33;100217.78;;;13.50;37.32
13456;BME280;6800;50.940;6.940;2022-12-11T14:28:39;100222.97;;;12.93;39.21
13456;BME280;6800;50.940;6.940;2022-12-11T14:32:42;100221.97;;;13.64;37.63
13456;BME280;6800;50.940;6.940;2022-12-11T14:36:45;100224.88;;;13.26;37.65
13456;BME280;6800;50.940;6.940;2022-12-11T14:40:49;100222.19;;;13.50;37.24
13456;BME280;6800;50.940;6.940;2022-12-11T14:45:06;100234.22;;;13.06;37.41
13456;BME280;6800;50.940;6.940;2022-12-11T14:49:20;100237.13;;;12.67;37.69
13456;BME280;6800;50.940;6.940;2022-12-11T14:53:27;100248.66;;;12.65;37.53
13456;BME280;6800;50.940;6.940;2022-12-11T14:57:30;100241.06;;;12.96;37.32
13456;BME280;6800;50.940;6.940;2022-12-11T15:01:34;100244.72;;;12.59;37.43
13456;BME280;6800;50.940;6.940;2022-12-11T15:05:34;100248.25;;;12.58;37.63
13456;BME280;6800;50.940;6.940;2022-12-11T15:09:38;100247.16;;;12.37;37.78
13456;BME280;6800;50.940;6.940;2022-12-11T15:13:58;100240.00;;;12.99;37.31
13456;BME280;6800;50.940;6.940;2022-12-11T15:18:07;100243.63;;;13.09;37.54
13456;BME280;6800;50.940;6.940;2022-12-11T15:22:14;100241.88;;;13.09;37.39
13456;BME280;6800;50.940;6.940;2022-12-11T15:26:15;100233.00;;;13.23;37.08
13456;BME280;6800;50.940;6.940;2022-12-11T15:34:23;100248.16;;;13.42;36.97
13456;BME280;6800;50.940;6.940;2022-12-11T15:38:27;100251.84;;;12.81;37.52
13456;BME280;6800;50.940;6.940;2022-12-11T15:42:33;100242.75;;;13.21;37.18
13456;BME280;6800;50.940;6.940;2022-12-11T15:46:35;100242.31;;;13.38;37.25
13456;BME280;6800;50.940;6.940;2022-12-11T15:50:35;100253.59;;;13.27;37.72
13456;BME280;6800;50.940;6.940;2022-12-11T15:54:36;100258.28;;;13.35;36.69
13456;BME280;6800;50.940;6.940;2022-12-11T15:58:36;100258.91;;;13.15;37.47
13456;BME280;6800;50.940;6.940;2022-12-11T16:02:37;100253.31;;;13.19;37.24
13456;BME280;6800;50.940;6.940;2022-12-11T16:06:37;100253.13;;;13.22;37.09
13456;BME280;6800;50.940;6.940;2022-12-11T16:10:45;100255.59;;;13.24;37.13
13456;BME280;6800;50.940;6.940;2022-12-11T16:14:45;100258.13;;;13.02;36.90
13456;BME280;6800;50.940;6.940;2022-12-11T16:18:46;100248.00;;;13.32;37.24
13456;BME280;6800;50.940;6.940;2022-12-11T16:22:46;100249.25;;;12.68;37.93
13456;BME280;6800;50.940;6.940;2022-12-11T16:26:46;100254.16;;;13.20;37.34
13456;BME280;6800;50.940;6.940;2022-12-11T16:30:47;100260.84;;;13.00;37.44
13456;BME280;6800;50.940;6.940;2022-12-11T16:34:48;100263.19;;;12.69;38.96
13456;BME280;6800;50.940;6.940;2022-12-11T16:38:49;100257.03;;;12.93;37.76
13456;BME280;6800;50.940;6.940;2022-12-11T16:42:49;100246.97;;;13.11;37.54
13456;BME280;6800;50.940;6.940;2022-12-11T16:46:50;100252.28;;;13.22;37.72
13456;BME280;6800;50.940;6.940;2022-12-11T16:50:52;100256.78;;;12.73;37.34
13456;BME280;6800;50.940;6.940;2022-12-11T16:54:53;100245.31;;;13.10;37.22
13456;BME280;6800;50.940;6.940;2022-12-11T16:58:53;100244.31;;;13.00;37.12
13456;BME280;6800;50.940;6.940;2022-12-11T17:02:54;100243.75;;;13.07;37.35
13456;BME280;6800;50.940;6.940;2022-12-11T17:06:54;100242.38;;;13.14;37.21
13456;BME280;6800;50.940;6.940;2022-12-11T17:10:54;100241.56;;;13.25;37.85
13456;BME280;6800;50.940;6.940;2022-12-11T17:14:55;100244.47;;;12.62;38.03
13456;BME280;6800;50.940;6.940;2022-12-11T17:18:56;100233.88;;;13.11;37.89
13456;BME280;6800;50.940;6.940;2022-12-11T17:22:56;100234.03;;;12.97;37.95
13456;BME280;6800;50.940;6.940;2022-12-11T17:26:57;100250.25;;;12.54;38.60
13456;BME280;6800;50.940;6.940;2022-12-11T17:30:58;100237.06;;;13.03;37.62
13456;BME280;6800;50.940;6.940;2022-12-11T17:35:01;100239.75;;;13.14;38.29
13456;BME280;6800;50.940;6.940;2022-12-11T17:39:02;100238.50;;;12.84;38.18
13456;BME280;6800;50.940;6.940;2022-12-11T17:43:02;100225.56;;;13.17;37.92
13456;BME280;6800;50.940;6.940;2022-12-11T17:47:05;100244.53;;;13.20;37.58
13456;BME280;6800;50.940;6.940;2022-12-11T17:51:08;100245.75;;;13.04;38.20
13456;BME280;6800;50.940;6.940;2022-12-11T17:55:08;100249.00;;;12.84;38.02
13456;BME280;6800;50.940;6.940;2022-12-11T17:59:08;100244.53;;;12.97;38.30
13456;BME280;6800;50.940;6.940;2022-12-11T18:03:09;100239.31;;;12.37;38.68
13456;BME280;6800;50.940;6.940;2022-12-11T18:07:10;100243.34;;;12.17;39.88
13456;BME280;6800;50.940;6.940;2022-12-11T18:11:14;100243.25;;;12.55;39.39
13456;BME280;6800;50.940;6.940;2022-12-11T18:15:15;100248.78;;;12.27;39.41
13456;BME280;6800;50.940;6.940;2022-12-11T18:19:17;100254.31;;;12.22;40.39
13456;BME280;6800;50.940;6.940;2022-12-11T18:23:19;100253.00;;;12.77;39.32
13456;BME280;6800;50.940;6.940;2022-12-11T18:27:19;100253.84;;;12.77;38.92
13456;BME280;6800;50.940;6.940;2022-12-11T18:31:20;100253.78;;;12.90;38.67
13456;BME280;6800;50.940;6.940;2022-12-11T18:35:21;100256.22;;;13.04;38.66
13456;BME280;6800;50.940;6.940;2022-12-11T18:39:21;100257.00;;;13.06;38.48
13456;BME280;6800;50.940;6.940;2022-12-11T18:43:22;100256.16;;;13.05;38.29
13456;BME280;6800;50.940;6.940;2022-12-11T18:47:22;100247.75;;;13.00;38.85
13456;BME280;6800;50.940;6.940;2022-12-11T18:51:22;100248.00;;;13.21;37.71
13456;BME280;6800;50.940;6.940;2022-12-11T18:55:23;100257.91;;;13.05;38.32
13456;BME280;6800;50.940;6.940;2022-12-11T18:59:23;100248.81;;;13.21;37.72
13456;BME280;6800;50.940;6.940;2022-12-11T19:03:23;100259.66;;;12.93;38.08
13456;BME280;6800;50.940;6.940;2022-12-11T19:07:24;100255.91;;;12.85;38.05
13456;BME280;6800;50.940;6.940;2022-12-11T19:11:26;100243.88;;;13.06;38.04
13456;BME280;6800;50.940;6.940;2022-12-11T19:15:27;100250.28;;;13.02;38.52
13456;BME280;6800;50.940;6.940;2022-12-11T19:19:27;100255.06;;;12.84;38.61
13456;BME280;6800;50.940;6.940;2022-12-11T19:23:27;100263.44;;;12.89;37.65
13456;BME280;6800;50.940;6.940;2022-12-11T19:27:28;100257.50;;;12.98;37.30
13456;BME280;6800;50.940;6.940;2022-12-11T19:31:30;100245.75;;;13.04;38.55
13456;BME280;6800;50.940;6.940;2022-12-11T19:35:30;100249.88;;;12.72;37.82
13456;BME280;6800;50.940;6.940;2022-12-11T19:39:31;100248.88;;;12.62;38.09
13456;BME280;6800;50.940;6.940;2022-12-11T19:43:32;100241.31;;;12.70;38.29
13456;BME280;6800;50.940;6.940;2022-12-11T19:47:33;100246.13;;;12.39;38.89
13456;BME280;6800;50.940;6.940;2022-12-11T19:51:35;100239.53;;;12.46;38.93
13456;BME280;6800;50.940;6.940;2022-12-11T19:55:37;100247.72;;;12.29;39.94
13456;BME280;6800;50.940;6.940;2022-12-11T19:59:39;100240.75;;;12.77;39.53
13456;BME280;6800;50.940;6.940;2022-12-11T20:03:40;100248.56;;;12.30;39.41
13456;BME280;6800;50.940;6.940;2022-12-11T20:07:41;100244.75;;;12.46;39.16
13456;BME280;6800;50.940;6.940;2022-12-11T20:11:44;100247.03;;;12.75;38.90
13456;BME280;6800;50.940;6.940;2022-12-11T20:15:44;100253.00;;;12.17;40.02
13456;BME280;6800;50.940;6.940;2022-12-11T20:19:44;100240.69;;;12.66;39.33
13456;BME280;6800;50.940;6.940;2022-12-11T20:23:46;100241.19;;;12.71;39.03
13456;BME280;6800;50.940;6.940;2022-12-11T20:27:46;100237.25;;;12.66;39.00
13456;BME280;6800;50.940;6.940;2022-12-11T20:31:48;100247.78;;;12.04;39.89
13456;BME280;6800;50.940;6.940;2022-12-11T20:35:49;100242.72;;;12.14;39.50
13456;BME280;6800;50.940;6.940;2022-12-11T20:39:49;100236.94;;;12.57;39.17
13456;BME280;6800;50.940;6.940;2022-12-11T20:43:50;100244.66;;;12.72;39.13
13456;BME280;6800;50.940;6.940;2022-12-11T20:47:52;100245.91;;;12.42;39.44
13456;BME280;6800;50.940;6.940;2022-12-11T20:51:53;100238.75;;;12.81;38.51
13456;BME280;6800;50.940;6.940;2022-12-11T20:55:53;100225.88;;;12.78;38.87
13456;BME280;6800;50.940;6.940;2022-12-11T20:59:54;100238.78;;;12.68;39.10
13456;BME280;6800;50.940;6.940;2022-12-11T21:03:54;100243.81;;;12.71;39.04
13456;BME280;6800;50.940;6.940;2022-12-11T21:07:54;100232.56;;;13.05;37.94
13456;BME280;6800;50.940;6.940;2022-12-11T21:11:56;100239.59;;;13.05;38.55
13456;BME280;6800;50.940;6.940;2022-12-11T21:16:10;100234.16;;;13.19;38.46
13456;BME280;6800;50.940;6.940;2022-12-11T21:20:13;100244.34;;;12.87;40.29
13456;BME280;6800;50.940;6.940;2022-12-11T21:24:21;100236.41;;;13.12;38.32
13456;BME280;6800;50.940;6.940;2022-12-11T21:28:22;100238.09;;;13.24;38.72
13456;BME280;6800;50.940;6.940;2022-12-11T21:32:22;100237.91;;;13.04;38.07
13456;BME280;6800;50.940;6.940;2022-12-11T21:36:22;100229.25;;;12.91;38.30
13456;BME280;6800;50.940;6.940;2022-12-11T21:40:23;100235.78;;;11.89;40.00
13456;BME280;6800;50.940;6.940;2022-12-11T21:44:23;100236.91;;;11.98;39.99
13456;BME280;6800;50.940;6.940;2022-12-11T21:48:23;100237.84;;;11.97;40.03
13456;BME280;6800;50.940;6.940;2022-12-11T21:52:24;100240.97;;;12.14;39.70
13456;BME280;6800;50.940;6.940;2022-12-11T21:56:26;100242.03;;;11.99;40.01
13456;BME280;6800;50.940;6.940;2022-12-11T22:00:27;100241.94;;;11.75;40.75